sensor_id;sensor_type;location;lat;lon;timestamp;temperature;humidity
18950;DHT22;9608;49.288;8.130;2022-08-01T00:01:24;23.70;99.90
18950;DHT22;9608;49.288;8.130;2022-08-01T00:03:51;23.70;99.90
18950;DHT22;9608;49.288;8.130;2022-08-01T00:06:19;23.70;99.90
18950;DHT22;9608;49.288;8.130;2022-08-01T00:08:46;23.70;99.90
18950;DHT22;9608;49.288;8.130;2022-08-01T00:11:12;23.60;99.90
18950;DHT22;9608;49.288;8.130;2022-08-01T00:13:39;23.60;99.90
18950;DHT22;9608;49.288;8.130;2022-08-01T00:16:06;23.60;99.90
18950;DHT22;9608;49.288;8.130;2022-08-01T00:18:33;23.60;99.90
18950;DHT22;9608;49.288;8.130;2022-08-01T00:21:00;23.60;99.90
18950;DHT22;9608;49.288;8.130;2022-08-01T00:23:29;23.60;99.90
18950;DHT22;9608;49.288;8.130;2022-08-01T00:25:56;23.60;99.90
18950;DHT22;9608;49.288;8.130;2022-08-01T00:28:22;23.40;99.90
18950;DHT22;9608;49.288;8.130;2022-08-01T00:30:49;23.40;99.90
18950;DHT22;9608;49.288;8.130;2022-08-01T00:33:16;23.40;99.90
18950;DHT22;9608;49.288;8.130;2022-08-01T00:35:43;23.40;99.90
18950;DHT22;9608;49.288;8.130;2022-08-01T00:38:10;23.30;99.90
18950;DHT22;9608;49.288;8.130;2022-08-01T00:40:39;23.30;99.90
18950;DHT22;9608;49.288;8.130;2022-08-01T00:43:06;23.30;99.90
18950;DHT22;9608;49.288;8.130;2022-08-01T00:45:33;23.20;99.90
18950;DHT22;9608;49.288;8.130;2022-08-01T00:47:59;23.20;99.90
18950;DHT22;9608;49.288;8.130;2022-08-01T00:50:26;23.20;99.90
18950;DHT22;9608;49.288;8.130;2022-08-01T00:52:55;23.20;99.90
18950;DHT22;9608;49.288;8.130;2022-08-01T00:55:22;23.10;99.90
18950;DHT22;9608;49.288;8.130;2022-08-01T00:57:50;23.10;99.90
18950;DHT22;9608;49.288;8.130;2022-08-01T01:00:17;22.90;99.90
18950;DHT22;9608;49.288;8.130;2022-08-01T01:02:44;22.80;99.90
18950;DHT22;9608;49.288;8.130;2022-08-01T01:05:11;22.80;99.90
18950;DHT22;9608;49.288;8.130;2022-08-01T01:07:44;22.90;99.90
18950;DHT22;9608;49.288;8.130;2022-08-01T01:10:15;22.90;99.90
18950;DHT22;9608;49.288;8.130;2022-08-01T01:12:47;22.90;99.90
18950;DHT22;9608;49.288;8.130;2022-08-01T01:15:22;22.80;99.90
18950;DHT22;9608;49.288;8.130;2022-08-01T01:17:55;22.80;99.90
18950;DHT22;9608;49.288;8.130;2022-08-01T01:20:27;22.80;99.90
18950;DHT22;9608;49.288;8.130;2022-08-01T01:23:12;22.70;99.90
18950;DHT22;9608;49.288;8.130;2022-08-01T01:26:25;22.70;99.90
18950;DHT22;9608;49.288;8.130;2022-08-01T01:29:13;22.70;99.90
18950;DHT22;9608;49.288;8.130;2022-08-01T01:31:44;22.70;99.90
18950;DHT22;9608;49.288;8.130;2022-08-01T01:34:13;22.60;99.90
18950;DHT22;9608;49.288;8.130;2022-08-01T01:36:42;22.50;99.90
18950;DHT22;9608;49.288;8.130;2022-08-01T01:39:10;22.50;99.90
18950;DHT22;9608;49.288;8.130;2022-08-01T01:41:40;22.60;99.90
18950;DHT22;9608;49.288;8.130;2022-08-01T01:44:09;22.50;99.90
18950;DHT22;9608;49.288;8.130;2022-08-01T01:46:39;22.20;99.90
18950;DHT22;9608;49.288;8.130;2022-08-01T01:49:07;22.10;99.90
18950;DHT22;9608;49.288;8.130;2022-08-01T01:51:35;22.20;99.90
18950;DHT22;9608;49.288;8.130;2022-08-01T01:54:04;22.20;99.90
18950;DHT22;9608;49.288;8.130;2022-08-01T01:56:32;22.20;99.90
18950;DHT22;9608;49.288;8.130;2022-08-01T01:59:02;22.30;99.90
18950;DHT22;9608;49.288;8.130;2022-08-01T02:01:32;22.30;99.90
18950;DHT22;9608;49.288;8.130;2022-08-01T02:04:03;22.30;99.90
18950;DHT22;9608;49.288;8.130;2022-08-01T02:06:30;22.20;99.90
18950;DHT22;9608;49.288;8.130;2022-08-01T02:08:59;22.20;99.90
18950;DHT22;9608;49.288;8.130;2022-08-01T02:11:27;22.10;99.90
18950;DHT22;9608;49.288;8.130;2022-08-01T02:13:57;22.00;99.90
18950;DHT22;9608;49.288;8.130;2022-08-01T02:16:27;22.00;99.90
18950;DHT22;9608;49.288;8.130;2022-08-01T02:18:55;22.00;99.90
18950;DHT22;9608;49.288;8.130;2022-08-01T02:21:27;22.00;99.90
18950;DHT22;9608;49.288;8.130;2022-08-01T02:23:57;21.90;99.90
18950;DHT22;9608;49.288;8.130;2022-08-01T02:26:27;21.70;99.90
18950;DHT22;9608;49.288;8.130;2022-08-01T02:28:59;21.70;99.90
18950;DHT22;9608;49.288;8.130;2022-08-01T02:31:31;21.70;99.90
18950;DHT22;9608;49.288;8.130;2022-08-01T02:34:00;21.70;99.90
18950;DHT22;9608;49.288;8.130;2022-08-01T02:36:33;21.60;99.90
18950;DHT22;9608;49.288;8.130;2022-08-01T02:39:02;21.60;99.90
18950;DHT22;9608;49.288;8.130;2022-08-01T02:41:30;21.50;99.90
18950;DHT22;9608;49.288;8.130;2022-08-01T02:44:02;21.30;99.90
18950;DHT22;9608;49.288;8.130;2022-08-01T02:46:34;21.00;99.90
18950;DHT22;9608;49.288;8.130;2022-08-01T02:49:03;20.90;99.90
18950;DHT22;9608;49.288;8.130;2022-08-01T02:51:33;20.70;99.90
18950;DHT22;9608;49.288;8.130;2022-08-01T02:54:03;20.80;99.90
18950;DHT22;9608;49.288;8.130;2022-08-01T02:56:32;20.90;99.90
18950;DHT22;9608;49.288;8.130;2022-08-01T02:59:04;20.90;99.90
18950;DHT22;9608;49.288;8.130;2022-08-01T03:01:32;20.90;99.90
18950;DHT22;9608;49.288;8.130;2022-08-01T03:04:00;20.80;99.90
18950;DHT22;9608;49.288;8.130;2022-08-01T03:06:28;20.70;99.90
18950;DHT22;9608;49.288;8.130;2022-08-01T03:08:58;20.60;99.90
18950;DHT22;9608;49.288;8.130;2022-08-01T03:11:27;20.50;99.90
18950;DHT22;9608;49.288;8.130;2022-08-01T03:13:55;20.40;99.90
18950;DHT22;9608;49.288;8.130;2022-08-01T03:16:24;20.40;99.90
18950;DHT22;9608;49.288;8.130;2022-08-01T03:18:53;20.30;99.90
18950;DHT22;9608;49.288;8.130;2022-08-01T03:21:22;20.20;99.90
18950;DHT22;9608;49.288;8.130;2022-08-01T03:23:50;20.20;99.90
18950;DHT22;9608;49.288;8.130;2022-08-01T03:26:25;20.10;99.90
18950;DHT22;9608;49.288;8.130;2022-08-01T03:28:55;20.00;99.90
18950;DHT22;9608;49.288;8.130;2022-08-01T03:31:23;20.00;99.90
18950;DHT22;9608;49.288;8.130;2022-08-01T03:33:51;19.90;99.90
18950;DHT22;9608;49.288;8.130;2022-08-01T03:36:20;19.90;99.90
18950;DHT22;9608;49.288;8.130;2022-08-01T03:38:48;19.90;99.90
18950;DHT22;9608;49.288;8.130;2022-08-01T03:41:20;19.90;99.90
18950;DHT22;9608;49.288;8.130;2022-08-01T03:43:56;19.90;99.90
18950;DHT22;9608;49.288;8.130;2022-08-01T03:46:42;20.00;99.90
18950;DHT22;9608;49.288;8.130;2022-08-01T03:49:13;20.00;99.90
18950;DHT22;9608;49.288;8.130;2022-08-01T03:51:40;20.10;99.90
18950;DHT22;9608;49.288;8.130;2022-08-01T03:54:08;20.10;99.90
18950;DHT22;9608;49.288;8.130;2022-08-01T03:56:37;20.20;99.90
18950;DHT22;9608;49.288;8.130;2022-08-01T03:59:06;20.20;99.90
18950;DHT22;9608;49.288;8.130;2022-08-01T04:01:33;20.20;99.90
18950;DHT22;9608;49.288;8.130;2022-08-01T04:04:01;20.30;99.90
18950;DHT22;9608;49.288;8.130;2022-08-01T04:06:30;20.30;99.90
18950;DHT22;9608;49.288;8.130;2022-08-01T04:08:57;20.30;99.90
18950;DHT22;9608;49.288;8.130;2022-08-01T04:11:25;20.40;99.90
18950;DHT22;9608;49.288;8.130;2022-08-01T04:13:53;20.50;99.90
18950;DHT22;9608;49.288;8.130;2022-08-01T04:16:22;20.60;99.90
18950;DHT22;9608;49.288;8.130;2022-08-01T04:18:49;20.60;99.90
18950;DHT22;9608;49.288;8.130;2022-08-01T04:21:18;20.60;99.90
18950;DHT22;9608;49.288;8.130;2022-08-01T04:23:47;20.70;99.90
18950;DHT22;9608;49.288;8.130;2022-08-01T04:26:15;20.60;99.90
18950;DHT22;9608;49.288;8.130;2022-08-01T04:28:43;20.60;99.90
18950;DHT22;9608;49.288;8.130;2022-08-01T04:31:11;20.70;99.90
18950;DHT22;9608;49.288;8.130;2022-08-01T04:33:42;20.70;99.90
18950;DHT22;9608;49.288;8.130;2022-08-01T04:36:12;20.70;99.90
18950;DHT22;9608;49.288;8.130;2022-08-01T04:38:40;20.80;99.90
18950;DHT22;9608;49.288;8.130;2022-08-01T04:41:11;20.90;99.90
18950;DHT22;9608;49.288;8.130;2022-08-01T04:43:39;21.00;99.90
18950;DHT22;9608;49.288;8.130;2022-08-01T04:46:07;21.30;99.90
18950;DHT22;9608;49.288;8.130;2022-08-01T04:48:37;21.80;99.90
18950;DHT22;9608;49.288;8.130;2022-08-01T04:51:11;22.30;99.90
18950;DHT22;9608;49.288;8.130;2022-08-01T04:53:40;22.80;99.90
18950;DHT22;9608;49.288;8.130;2022-08-01T04:56:07;23.30;99.90
18950;DHT22;9608;49.288;8.130;2022-08-01T04:58:34;23.70;99.90
18950;DHT22;9608;49.288;8.130;2022-08-01T05:01:01;24.10;99.90
18950;DHT22;9608;49.288;8.130;2022-08-01T05:03:27;24.60;99.90
18950;DHT22;9608;49.288;8.130;2022-08-01T05:05:54;24.90;99.90
18950;DHT22;9608;49.288;8.130;2022-08-01T05:08:22;25.30;99.90
18950;DHT22;9608;49.288;8.130;2022-08-01T05:10:49;25.50;99.90
18950;DHT22;9608;49.288;8.130;2022-08-01T05:13:15;25.40;99.90
18950;DHT22;9608;49.288;8.130;2022-08-01T05:15:42;25.40;99.90
18950;DHT22;9608;49.288;8.130;2022-08-01T05:18:09;25.30;99.90
18950;DHT22;9608;49.288;8.130;2022-08-01T05:20:36;25.20;99.90
18950;DHT22;9608;49.288;8.130;2022-08-01T05:23:03;25.30;99.90
18950;DHT22;9608;49.288;8.130;2022-08-01T05:25:31;25.50;99.90
18950;DHT22;9608;49.288;8.130;2022-08-01T05:27:58;25.80;99.90
18950;DHT22;9608;49.288;8.130;2022-08-01T05:30:25;25.90;99.90
18950;DHT22;9608;49.288;8.130;2022-08-01T05:32:52;26.00;99.90
18950;DHT22;9608;49.288;8.130;2022-08-01T05:35:19;25.90;99.90
18950;DHT22;9608;49.288;8.130;2022-08-01T05:37:45;25.90;99.90
18950;DHT22;9608;49.288;8.130;2022-08-01T05:40:12;25.90;99.90
18950;DHT22;9608;49.288;8.130;2022-08-01T05:42:40;25.90;99.90
18950;DHT22;9608;49.288;8.130;2022-08-01T05:45:08;25.80;99.90
18950;DHT22;9608;49.288;8.130;2022-08-01T05:47:34;25.40;99.90
18950;DHT22;9608;49.288;8.130;2022-08-01T05:50:01;25.20;99.90
18950;DHT22;9608;49.288;8.130;2022-08-01T05:52:28;25.30;99.90
18950;DHT22;9608;49.288;8.130;2022-08-01T05:54:56;25.50;99.90
18950;DHT22;9608;49.288;8.130;2022-08-01T05:57:23;25.40;99.90
18950;DHT22;9608;49.288;8.130;2022-08-01T05:59:51;25.50;99.90
18950;DHT22;9608;49.288;8.130;2022-08-01T06:02:18;25.30;99.90
18950;DHT22;9608;49.288;8.130;2022-08-01T06:04:44;25.40;99.90
18950;DHT22;9608;49.288;8.130;2022-08-01T06:07:11;25.50;99.90
18950;DHT22;9608;49.288;8.130;2022-08-01T06:09:38;25.40;99.90
18950;DHT22;9608;49.288;8.130;2022-08-01T06:12:05;25.30;99.90
18950;DHT22;9608;49.288;8.130;2022-08-01T06:14:32;25.40;99.90
18950;DHT22;9608;49.288;8.130;2022-08-01T06:17:00;25.50;99.90
18950;DHT22;9608;49.288;8.130;2022-08-01T06:19:26;25.50;99.90
18950;DHT22;9608;49.288;8.130;2022-08-01T06:21:53;25.60;99.90
18950;DHT22;9608;49.288;8.130;2022-08-01T06:24:20;25.70;99.90
18950;DHT22;9608;49.288;8.130;2022-08-01T06:26:48;25.70;99.90
18950;DHT22;9608;49.288;8.130;2022-08-01T06:29:15;25.70;99.90
18950;DHT22;9608;49.288;8.130;2022-08-01T06:31:42;25.70;99.90
18950;DHT22;9608;49.288;8.130;2022-08-01T06:34:10;25.70;99.90
18950;DHT22;9608;49.288;8.130;2022-08-01T06:36:36;25.70;99.90
18950;DHT22;9608;49.288;8.130;2022-08-01T06:39:03;25.60;99.90
18950;DHT22;9608;49.288;8.130;2022-08-01T06:41:30;25.50;99.90
18950;DHT22;9608;49.288;8.130;2022-08-01T06:43:56;25.40;99.90
18950;DHT22;9608;49.288;8.130;2022-08-01T06:46:25;25.30;99.90
18950;DHT22;9608;49.288;8.130;2022-08-01T06:48:52;25.30;99.90
18950;DHT22;9608;49.288;8.130;2022-08-01T06:51:20;25.30;99.90
18950;DHT22;9608;49.288;8.130;2022-08-01T06:53:46;25.30;99.90
18950;DHT22;9608;49.288;8.130;2022-08-01T06:56:13;25.30;99.90
18950;DHT22;9608;49.288;8.130;2022-08-01T06:58:40;25.30;99.90
18950;DHT22;9608;49.288;8.130;2022-08-01T07:01:07;25.30;99.90
18950;DHT22;9608;49.288;8.130;2022-08-01T07:03:34;25.30;99.90
18950;DHT22;9608;49.288;8.130;2022-08-01T07:06:01;25.30;99.90
18950;DHT22;9608;49.288;8.130;2022-08-01T07:08:29;25.20;99.90
18950;DHT22;9608;49.288;8.130;2022-08-01T07:10:56;25.20;99.90
18950;DHT22;9608;49.288;8.130;2022-08-01T07:13:25;25.30;99.90
18950;DHT22;9608;49.288;8.130;2022-08-01T07:15:52;25.20;99.90
18950;DHT22;9608;49.288;8.130;2022-08-01T07:18:19;25.30;99.90
18950;DHT22;9608;49.288;8.130;2022-08-01T07:20:46;25.30;99.90
18950;DHT22;9608;49.288;8.130;2022-08-01T07:23:13;25.40;99.90
18950;DHT22;9608;49.288;8.130;2022-08-01T07:25:41;25.60;99.90
18950;DHT22;9608;49.288;8.130;2022-08-01T07:28:08;25.70;99.90
18950;DHT22;9608;49.288;8.130;2022-08-01T07:30:35;25.60;99.90
18950;DHT22;9608;49.288;8.130;2022-08-01T07:33:02;25.40;99.90
18950;DHT22;9608;49.288;8.130;2022-08-01T07:35:29;25.50;99.90
18950;DHT22;9608;49.288;8.130;2022-08-01T07:37:55;25.40;99.90
18950;DHT22;9608;49.288;8.130;2022-08-01T07:40:22;25.40;99.90
18950;DHT22;9608;49.288;8.130;2022-08-01T07:42:50;25.00;99.90
18950;DHT22;9608;49.288;8.130;2022-08-01T07:45:17;24.90;99.90
18950;DHT22;9608;49.288;8.130;2022-08-01T07:47:44;24.70;99.90
18950;DHT22;9608;49.288;8.130;2022-08-01T07:50:12;24.60;99.90
18950;DHT22;9608;49.288;8.130;2022-08-01T07:52:39;24.60;99.90
18950;DHT22;9608;49.288;8.130;2022-08-01T07:55:07;24.70;99.90
18950;DHT22;9608;49.288;8.130;2022-08-01T07:57:34;24.90;99.90
18950;DHT22;9608;49.288;8.130;2022-08-01T08:00:03;25.10;99.90
18950;DHT22;9608;49.288;8.130;2022-08-01T08:02:30;25.50;99.90
18950;DHT22;9608;49.288;8.130;2022-08-01T08:04:56;26.00;99.90
18950;DHT22;9608;49.288;8.130;2022-08-01T08:07:23;26.20;99.90
18950;DHT22;9608;49.288;8.130;2022-08-01T08:09:50;26.50;99.90
18950;DHT22;9608;49.288;8.130;2022-08-01T08:12:17;26.60;99.90
18950;DHT22;9608;49.288;8.130;2022-08-01T08:14:43;26.60;99.90
18950;DHT22;9608;49.288;8.130;2022-08-01T08:17:11;26.70;99.90
18950;DHT22;9608;49.288;8.130;2022-08-01T08:19:39;26.80;99.90
18950;DHT22;9608;49.288;8.130;2022-08-01T08:22:06;27.10;99.90
18950;DHT22;9608;49.288;8.130;2022-08-01T08:24:33;27.40;99.90
18950;DHT22;9608;49.288;8.130;2022-08-01T08:27:01;27.80;99.90
18950;DHT22;9608;49.288;8.130;2022-08-01T08:29:30;28.00;99.90
18950;DHT22;9608;49.288;8.130;2022-08-01T08:31:58;28.20;99.90
18950;DHT22;9608;49.288;8.130;2022-08-01T08:34:27;28.60;99.90
18950;DHT22;9608;49.288;8.130;2022-08-01T08:36:55;28.60;99.90
18950;DHT22;9608;49.288;8.130;2022-08-01T08:39:23;28.50;99.90
18950;DHT22;9608;49.288;8.130;2022-08-01T08:41:50;28.60;99.90
18950;DHT22;9608;49.288;8.130;2022-08-01T08:44:18;28.80;99.90
18950;DHT22;9608;49.288;8.130;2022-08-01T08:46:46;29.00;99.90
18950;DHT22;9608;49.288;8.130;2022-08-01T08:49:17;28.90;99.90
18950;DHT22;9608;49.288;8.130;2022-08-01T08:51:48;29.00;99.90
18950;DHT22;9608;49.288;8.130;2022-08-01T08:54:16;28.80;99.90
18950;DHT22;9608;49.288;8.130;2022-08-01T08:56:44;28.90;99.90
18950;DHT22;9608;49.288;8.130;2022-08-01T08:59:12;28.90;99.90
18950;DHT22;9608;49.288;8.130;2022-08-01T09:01:40;29.00;99.90
18950;DHT22;9608;49.288;8.130;2022-08-01T09:04:06;28.70;99.90
18950;DHT22;9608;49.288;8.130;2022-08-01T09:06:33;28.60;99.90
18950;DHT22;9608;49.288;8.130;2022-08-01T09:09:02;28.30;99.90
18950;DHT22;9608;49.288;8.130;2022-08-01T09:11:29;28.10;99.90
18950;DHT22;9608;49.288;8.130;2022-08-01T09:14:05;28.20;99.90
18950;DHT22;9608;49.288;8.130;2022-08-01T09:16:33;28.10;99.90
18950;DHT22;9608;49.288;8.130;2022-08-01T09:19:12;28.20;99.90
18950;DHT22;9608;49.288;8.130;2022-08-01T09:21:39;28.40;99.90
18950;DHT22;9608;49.288;8.130;2022-08-01T09:24:16;28.40;99.90
18950;DHT22;9608;49.288;8.130;2022-08-01T09:26:44;28.30;99.90
18950;DHT22;9608;49.288;8.130;2022-08-01T09:29:18;28.40;99.90
18950;DHT22;9608;49.288;8.130;2022-08-01T09:31:46;28.50;99.90
18950;DHT22;9608;49.288;8.130;2022-08-01T09:34:14;28.50;99.90
18950;DHT22;9608;49.288;8.130;2022-08-01T09:36:48;28.70;99.90
18950;DHT22;9608;49.288;8.130;2022-08-01T09:39:20;28.50;99.90
18950;DHT22;9608;49.288;8.130;2022-08-01T09:41:47;28.80;99.90
18950;DHT22;9608;49.288;8.130;2022-08-01T09:44:14;28.90;99.90
18950;DHT22;9608;49.288;8.130;2022-08-01T09:46:49;28.60;99.90
18950;DHT22;9608;49.288;8.130;2022-08-01T09:49:27;27.80;99.90
18950;DHT22;9608;49.288;8.130;2022-08-01T09:51:54;27.40;99.90
18950;DHT22;9608;49.288;8.130;2022-08-01T09:54:30;27.20;99.90
18950;DHT22;9608;49.288;8.130;2022-08-01T09:57:11;27.70;99.90
18950;DHT22;9608;49.288;8.130;2022-08-01T09:59:40;28.10;99.90
18950;DHT22;9608;49.288;8.130;2022-08-01T10:02:08;28.20;99.90
18950;DHT22;9608;49.288;8.130;2022-08-01T10:04:36;28.50;99.90
18950;DHT22;9608;49.288;8.130;2022-08-01T10:07:07;29.00;99.90
18950;DHT22;9608;49.288;8.130;2022-08-01T10:09:36;29.40;99.90
18950;DHT22;9608;49.288;8.130;2022-08-01T10:12:03;29.60;99.90
18950;DHT22;9608;49.288;8.130;2022-08-01T10:14:31;29.70;99.90
18950;DHT22;9608;49.288;8.130;2022-08-01T10:16:59;29.60;99.90
18950;DHT22;9608;49.288;8.130;2022-08-01T10:19:30;29.00;99.90
18950;DHT22;9608;49.288;8.130;2022-08-01T10:21:58;28.80;99.90
18950;DHT22;9608;49.288;8.130;2022-08-01T10:24:27;28.50;99.90
18950;DHT22;9608;49.288;8.130;2022-08-01T10:26:58;28.40;99.90
18950;DHT22;9608;49.288;8.130;2022-08-01T10:29:31;28.20;99.90
18950;DHT22;9608;49.288;8.130;2022-08-01T10:31:59;28.10;99.90
18950;DHT22;9608;49.288;8.130;2022-08-01T10:34:27;28.20;99.90
18950;DHT22;9608;49.288;8.130;2022-08-01T10:36:55;28.50;99.90
18950;DHT22;9608;49.288;8.130;2022-08-01T10:39:22;28.80;99.90
18950;DHT22;9608;49.288;8.130;2022-08-01T10:41:49;29.10;99.90
18950;DHT22;9608;49.288;8.130;2022-08-01T10:44:17;29.20;99.90
18950;DHT22;9608;49.288;8.130;2022-08-01T10:46:47;29.10;99.90
18950;DHT22;9608;49.288;8.130;2022-08-01T10:49:17;29.30;99.90
18950;DHT22;9608;49.288;8.130;2022-08-01T10:51:47;29.80;99.90
18950;DHT22;9608;49.288;8.130;2022-08-01T10:54:14;30.50;99.90
18950;DHT22;9608;49.288;8.130;2022-08-01T10:56:43;30.70;99.90
18950;DHT22;9608;49.288;8.130;2022-08-01T10:59:14;30.80;99.90
18950;DHT22;9608;49.288;8.130;2022-08-01T11:01:55;30.30;99.90
18950;DHT22;9608;49.288;8.130;2022-08-01T11:04:32;29.70;99.90
18950;DHT22;9608;49.288;8.130;2022-08-01T11:07:04;29.20;99.90
18950;DHT22;9608;49.288;8.130;2022-08-01T11:09:39;28.90;99.90
18950;DHT22;9608;49.288;8.130;2022-08-01T11:12:08;28.70;99.90
18950;DHT22;9608;49.288;8.130;2022-08-01T11:17:37;29.00;99.90
18950;DHT22;9608;49.288;8.130;2022-08-01T11:20:08;29.20;99.90
18950;DHT22;9608;49.288;8.130;2022-08-01T11:23:15;29.50;99.90
18950;DHT22;9608;49.288;8.130;2022-08-01T11:26:06;29.70;99.90
18950;DHT22;9608;49.288;8.130;2022-08-01T11:28:33;30.10;99.90
18950;DHT22;9608;49.288;8.130;2022-08-01T11:31:28;30.40;99.90
18950;DHT22;9608;49.288;8.130;2022-08-01T11:33:57;30.70;99.90
18950;DHT22;9608;49.288;8.130;2022-08-01T11:36:24;30.90;99.90
18950;DHT22;9608;49.288;8.130;2022-08-01T11:39:12;30.90;99.90
18950;DHT22;9608;49.288;8.130;2022-08-01T11:41:40;31.10;99.90
18950;DHT22;9608;49.288;8.130;2022-08-01T11:44:08;31.20;99.60
18950;DHT22;9608;49.288;8.130;2022-08-01T11:46:49;30.80;99.90
18950;DHT22;9608;49.288;8.130;2022-08-01T11:52:09;30.50;99.90
18950;DHT22;9608;49.288;8.130;2022-08-01T11:54:37;30.50;99.90
18950;DHT22;9608;49.288;8.130;2022-08-01T11:57:08;30.10;99.90
18950;DHT22;9608;49.288;8.130;2022-08-01T11:59:37;29.80;99.90
18950;DHT22;9608;49.288;8.130;2022-08-01T12:02:04;29.50;99.90
18950;DHT22;9608;49.288;8.130;2022-08-01T12:05:04;29.30;99.90
18950;DHT22;9608;49.288;8.130;2022-08-01T12:07:32;29.80;99.90
18950;DHT22;9608;49.288;8.130;2022-08-01T12:10:01;30.00;99.90
18950;DHT22;9608;49.288;8.130;2022-08-01T12:12:29;30.60;99.90
18950;DHT22;9608;49.288;8.130;2022-08-01T12:14:59;30.90;99.80
18950;DHT22;9608;49.288;8.130;2022-08-01T12:17:34;31.20;99.40
18950;DHT22;9608;49.288;8.130;2022-08-01T12:20:05;31.60;98.10
18950;DHT22;9608;49.288;8.130;2022-08-01T12:22:32;31.90;97.80
18950;DHT22;9608;49.288;8.130;2022-08-01T12:25:05;31.90;96.70
18950;DHT22;9608;49.288;8.130;2022-08-01T12:27:32;32.00;96.60
18950;DHT22;9608;49.288;8.130;2022-08-01T12:29:59;31.80;95.70
18950;DHT22;9608;49.288;8.130;2022-08-01T12:32:27;31.80;95.90
18950;DHT22;9608;49.288;8.130;2022-08-01T12:34:58;31.70;94.90
18950;DHT22;9608;49.288;8.130;2022-08-01T12:37:28;31.80;94.60
18950;DHT22;9608;49.288;8.130;2022-08-01T12:39:55;31.50;95.00
18950;DHT22;9608;49.288;8.130;2022-08-01T12:42:22;31.60;94.00
18950;DHT22;9608;49.288;8.130;2022-08-01T12:44:51;31.60;93.80
18950;DHT22;9608;49.288;8.130;2022-08-01T12:47:19;31.70;93.60
18950;DHT22;9608;49.288;8.130;2022-08-01T12:49:47;31.60;93.60
18950;DHT22;9608;49.288;8.130;2022-08-01T12:52:14;31.20;93.60
18950;DHT22;9608;49.288;8.130;2022-08-01T12:55:07;30.80;94.30
18950;DHT22;9608;49.288;8.130;2022-08-01T12:57:36;30.20;95.50
18950;DHT22;9608;49.288;8.130;2022-08-01T13:00:08;30.20;95.90
18950;DHT22;9608;49.288;8.130;2022-08-01T13:02:36;30.20;96.40
18950;DHT22;9608;49.288;8.130;2022-08-01T13:05:03;30.40;96.10
18950;DHT22;9608;49.288;8.130;2022-08-01T13:07:38;30.00;97.00
18950;DHT22;9608;49.288;8.130;2022-08-01T13:10:08;30.30;97.00
18950;DHT22;9608;49.288;8.130;2022-08-01T13:12:36;30.80;96.80
18950;DHT22;9608;49.288;8.130;2022-08-01T13:15:17;30.90;95.30
18950;DHT22;9608;49.288;8.130;2022-08-01T13:17:44;30.90;95.60
18950;DHT22;9608;49.288;8.130;2022-08-01T13:20:21;31.20;95.10
18950;DHT22;9608;49.288;8.130;2022-08-01T13:22:49;31.50;94.80
18950;DHT22;9608;49.288;8.130;2022-08-01T13:25:18;31.60;94.60
18950;DHT22;9608;49.288;8.130;2022-08-01T13:27:45;31.80;94.00
18950;DHT22;9608;49.288;8.130;2022-08-01T13:30:13;31.50;94.30
18950;DHT22;9608;49.288;8.130;2022-08-01T13:32:40;31.50;94.20
18950;DHT22;9608;49.288;8.130;2022-08-01T13:35:09;31.20;94.80
18950;DHT22;9608;49.288;8.130;2022-08-01T13:37:38;30.80;94.80
18950;DHT22;9608;49.288;8.130;2022-08-01T13:40:06;30.40;95.80
18950;DHT22;9608;49.288;8.130;2022-08-01T13:42:34;30.10;96.30
18950;DHT22;9608;49.288;8.130;2022-08-01T13:45:01;30.10;96.50
18950;DHT22;9608;49.288;8.130;2022-08-01T13:47:28;29.60;97.00
18950;DHT22;9608;49.288;8.130;2022-08-01T13:49:55;29.80;97.30
18950;DHT22;9608;49.288;8.130;2022-08-01T13:52:25;30.00;97.20
18950;DHT22;9608;49.288;8.130;2022-08-01T13:54:52;29.80;97.20
18950;DHT22;9608;49.288;8.130;2022-08-01T13:57:19;29.90;97.50
18950;DHT22;9608;49.288;8.130;2022-08-01T13:59:48;30.20;96.90
18950;DHT22;9608;49.288;8.130;2022-08-01T14:02:15;30.20;96.70
18950;DHT22;9608;49.288;8.130;2022-08-01T14:04:42;30.20;96.50
18950;DHT22;9608;49.288;8.130;2022-08-01T14:07:08;29.90;96.20
18950;DHT22;9608;49.288;8.130;2022-08-01T14:09:35;30.10;96.40
18950;DHT22;9608;49.288;8.130;2022-08-01T14:12:02;30.40;96.30
18950;DHT22;9608;49.288;8.130;2022-08-01T14:14:29;30.40;95.30
18950;DHT22;9608;49.288;8.130;2022-08-01T14:16:57;30.40;95.70
18950;DHT22;9608;49.288;8.130;2022-08-01T14:19:24;30.50;96.10
18950;DHT22;9608;49.288;8.130;2022-08-01T14:21:50;30.50;96.10
18950;DHT22;9608;49.288;8.130;2022-08-01T14:24:17;30.50;96.30
18950;DHT22;9608;49.288;8.130;2022-08-01T14:26:44;30.80;96.00
18950;DHT22;9608;49.288;8.130;2022-08-01T14:29:11;30.90;96.10
18950;DHT22;9608;49.288;8.130;2022-08-01T14:31:38;31.00;95.10
18950;DHT22;9608;49.288;8.130;2022-08-01T14:34:06;30.50;95.80
18950;DHT22;9608;49.288;8.130;2022-08-01T14:36:34;30.30;96.70
18950;DHT22;9608;49.288;8.130;2022-08-01T14:39:00;30.30;96.70
18950;DHT22;9608;49.288;8.130;2022-08-01T14:41:27;30.20;96.40
18950;DHT22;9608;49.288;8.130;2022-08-01T14:43:54;30.20;96.20
18950;DHT22;9608;49.288;8.130;2022-08-01T14:46:21;30.00;96.10
18950;DHT22;9608;49.288;8.130;2022-08-01T14:48:47;29.80;96.20
18950;DHT22;9608;49.288;8.130;2022-08-01T14:51:15;29.60;96.80
18950;DHT22;9608;49.288;8.130;2022-08-01T14:53:42;29.60;97.30
18950;DHT22;9608;49.288;8.130;2022-08-01T14:56:09;29.60;97.40
18950;DHT22;9608;49.288;8.130;2022-08-01T14:58:36;29.60;97.20
18950;DHT22;9608;49.288;8.130;2022-08-01T15:01:03;29.70;97.20
18950;DHT22;9608;49.288;8.130;2022-08-01T15:03:31;29.70;97.60
18950;DHT22;9608;49.288;8.130;2022-08-01T15:05:58;29.60;97.70
18950;DHT22;9608;49.288;8.130;2022-08-01T15:08:27;29.40;97.70
18950;DHT22;9608;49.288;8.130;2022-08-01T15:10:55;29.30;97.90
18950;DHT22;9608;49.288;8.130;2022-08-01T15:13:22;29.30;98.20
18950;DHT22;9608;49.288;8.130;2022-08-01T15:15:48;29.20;97.90
18950;DHT22;9608;49.288;8.130;2022-08-01T15:18:15;29.10;98.00
18950;DHT22;9608;49.288;8.130;2022-08-01T15:20:42;29.00;98.20
18950;DHT22;9608;49.288;8.130;2022-08-01T15:23:10;29.00;98.40
18950;DHT22;9608;49.288;8.130;2022-08-01T15:25:38;28.90;98.40
18950;DHT22;9608;49.288;8.130;2022-08-01T15:28:05;28.80;98.50
18950;DHT22;9608;49.288;8.130;2022-08-01T15:30:32;28.90;98.90
18950;DHT22;9608;49.288;8.130;2022-08-01T15:33:00;28.90;99.10
18950;DHT22;9608;49.288;8.130;2022-08-01T15:35:26;28.90;99.30
18950;DHT22;9608;49.288;8.130;2022-08-01T15:37:53;28.80;99.70
18950;DHT22;9608;49.288;8.130;2022-08-01T15:40:20;28.80;99.90
18950;DHT22;9608;49.288;8.130;2022-08-01T15:42:48;28.60;99.90
18950;DHT22;9608;49.288;8.130;2022-08-01T15:45:15;28.40;99.90
18950;DHT22;9608;49.288;8.130;2022-08-01T15:47:44;28.30;99.90
18950;DHT22;9608;49.288;8.130;2022-08-01T15:50:11;28.10;99.90
18950;DHT22;9608;49.288;8.130;2022-08-01T15:52:38;28.00;99.90
18950;DHT22;9608;49.288;8.130;2022-08-01T15:55:05;27.80;99.90
18950;DHT22;9608;49.288;8.130;2022-08-01T15:57:32;27.70;99.90
18950;DHT22;9608;49.288;8.130;2022-08-01T16:00:00;27.70;99.90
18950;DHT22;9608;49.288;8.130;2022-08-01T16:02:27;27.70;99.90